createdAt,value
2019-05-13T00:03:54.075Z,6.12
2019-05-13T00:08:54.365Z,6.17
2019-05-13T00:10:54.176Z,6.08
2019-05-13T00:16:53.666Z,6.12
2019-05-13T00:17:54.357Z,6.21
2019-05-13T00:18:53.492Z,6.04
2019-05-13T00:19:53.286Z,6.11
2019-05-13T00:20:54.205Z,6.01
2019-05-13T00:21:55.638Z,6.17
2019-05-13T00:22:53.823Z,6.25
2019-05-13T00:23:53.440Z,6.18
2019-05-13T00:24:54.251Z,6.33
2019-05-13T00:25:54.569Z,6.22
2019-05-13T00:26:53.228Z,6.22
2019-05-13T00:27:53.693Z,6.27
2019-05-13T00:32:55.935Z,6.08
2019-05-13T00:33:53.305Z,6.09
2019-05-13T00:34:53.457Z,5.97
2019-05-13T00:35:53.459Z,6.01
2019-05-13T00:37:07.316Z,6.04
2019-05-13T00:37:54.253Z,5.93
2019-05-13T00:38:53.526Z,5.94
2019-05-13T00:39:54.287Z,5.90
2019-05-13T00:40:54.531Z,5.89
2019-05-13T00:41:53.352Z,5.82
2019-05-13T00:42:54.550Z,5.83
2019-05-13T00:43:53.406Z,5.91
2019-05-13T00:44:53.432Z,5.93
2019-05-13T00:47:54.725Z,5.93
2019-05-13T00:48:54.211Z,6.00
2019-05-13T00:49:54.140Z,5.83
2019-05-13T00:51:53.618Z,5.86
2019-05-13T00:52:53.730Z,5.86
2019-05-13T01:04:41.295Z,5.94
2019-05-13T01:05:41.321Z,5.94
2019-05-13T01:06:43.384Z,5.83
2019-05-13T01:09:41.427Z,5.72
2019-05-13T01:12:43.818Z,5.60
2019-05-13T01:13:43.343Z,5.63
2019-05-13T01:14:43.205Z,5.58
2019-05-13T01:15:44.231Z,5.67
2019-05-13T01:16:44.081Z,5.64
2019-05-13T01:18:15.053Z,5.65
2019-05-13T01:18:43.219Z,5.68
2019-05-13T01:19:43.350Z,5.63
2019-05-13T01:20:43.697Z,5.67
2019-05-13T01:21:43.440Z,5.68
2019-05-13T01:23:43.824Z,5.64
2019-05-13T01:24:43.651Z,5.67
2019-05-13T01:26:44.502Z,5.61
2019-05-13T01:27:44.197Z,5.64
2019-05-13T01:30:43.803Z,5.60
2019-05-13T01:32:54.622Z,5.75
2019-05-13T01:33:56.266Z,5.74
2019-05-13T01:37:09.359Z,5.56
2019-05-13T01:41:54.860Z,5.48
2019-05-13T01:42:54.884Z,5.49
2019-05-13T01:43:58.140Z,5.43
2019-05-13T01:44:55.891Z,5.42
2019-05-13T01:47:55.219Z,5.31
2019-05-13T01:48:57.666Z,5.36
2019-05-13T01:49:55.474Z,5.33
2019-05-13T01:55:03.841Z,5.20
2019-05-13T01:59:55.332Z,5.03
2019-05-13T02:00:55.525Z,4.96
2019-05-13T02:01:55.589Z,4.96
2019-05-13T02:04:55.668Z,5.02
2019-05-13T02:08:18.558Z,5.12
2019-05-13T02:09:18.180Z,5.15
2019-05-13T02:11:43.872Z,5.13
2019-05-13T02:12:40.869Z,5.12
2019-05-13T02:13:40.895Z,5.15
2019-05-13T02:14:40.920Z,5.02
2019-05-13T02:15:40.979Z,5.02
2019-05-13T02:17:28.526Z,5.06
2019-05-13T02:18:28.552Z,4.99
2019-05-13T02:19:28.578Z,4.91
2019-05-13T02:20:28.604Z,4.80
2019-05-13T02:21:28.630Z,4.94
2019-05-13T02:55:27.743Z,4.05
2019-05-13T02:56:27.765Z,3.93
2019-05-13T02:58:27.816Z,3.96
2019-05-13T02:59:27.842Z,4.06
2019-05-13T03:00:32.877Z,4.11
2019-05-13T03:01:27.893Z,4.32
2019-05-13T03:02:27.923Z,4.32
2019-05-13T03:03:27.972Z,4.32
2019-05-13T03:04:27.972Z,4.16
2019-05-13T03:05:27.997Z,4.20
2019-05-13T03:06:32.813Z,4.29
2019-05-13T03:07:28.253Z,4.15
2019-05-13T03:08:44.658Z,4.15
2019-05-13T03:11:42.327Z,4.09
2019-05-13T03:12:43.386Z,4.12
2019-05-13T03:14:47.496Z,4.05
2019-05-13T03:15:42.820Z,4.20
2019-05-13T03:16:42.795Z,4.04
2019-05-13T03:17:43.233Z,4.16
2019-05-13T03:19:24.270Z,3.93
2019-05-13T03:21:23.139Z,3.94
2019-05-13T03:23:13.857Z,3.87
2019-05-13T03:24:16.299Z,3.91
2019-05-13T03:26:14.539Z,3.98
2019-05-13T03:27:20.341Z,4.02
2019-05-13T03:30:16.419Z,3.83
2019-05-13T03:31:16.877Z,3.80
2019-05-13T03:32:16.027Z,3.78
2019-05-13T03:33:19.345Z,3.65
2019-05-13T03:35:16.469Z,3.68
2019-05-13T03:38:28.471Z,3.72
2019-05-13T03:39:22.533Z,3.70
2019-05-13T03:40:23.165Z,3.70
2019-05-13T03:41:22.824Z,3.76
2019-05-13T03:42:24.514Z,3.88
2019-05-13T03:44:23.650Z,4.02
2019-05-13T03:46:22.977Z,3.78
2019-05-13T03:47:23.075Z,3.86
2019-05-13T03:48:23.551Z,3.76
2019-05-13T03:49:24.696Z,3.73
2019-05-13T04:18:42.511Z,4.00
2019-05-13T04:20:42.322Z,3.90
2019-05-13T04:21:42.899Z,3.86
2019-05-13T04:22:42.508Z,3.87
2019-05-13T04:23:42.573Z,3.91
2019-05-13T04:24:42.735Z,3.79
2019-05-13T04:25:44.458Z,3.80
2019-05-13T04:26:43.220Z,3.86
2019-05-13T04:27:42.856Z,3.84
2019-05-13T04:28:43.093Z,3.86
2019-05-13T04:29:42.924Z,3.75
2019-05-13T04:30:43.473Z,3.75
2019-05-13T04:31:42.424Z,3.69
2019-05-13T04:32:43.876Z,3.55
2019-05-13T04:33:42.723Z,3.65
2019-05-13T04:34:42.496Z,3.61
2019-05-13T04:35:42.578Z,3.61
2019-05-13T04:36:43.108Z,3.62
2019-05-13T04:37:42.982Z,3.66
2019-05-13T04:38:43.733Z,3.75
2019-05-13T04:39:50.109Z,3.70
2019-05-13T04:40:42.464Z,3.73
2019-05-13T04:41:42.407Z,3.78
2019-05-13T04:42:42.685Z,3.91
2019-05-13T04:43:43.442Z,3.97
2019-05-13T04:44:42.757Z,4.02
2019-05-13T04:45:42.987Z,4.22
2019-05-13T04:46:43.419Z,4.36
2019-05-13T04:47:43.184Z,4.36
2019-05-13T04:48:44.288Z,4.50
2019-05-13T04:49:42.835Z,4.65
2019-05-13T04:50:43.154Z,4.78
2019-05-13T04:51:42.128Z,4.92
2019-05-13T04:52:42.358Z,5.02
2019-05-13T04:53:42.388Z,5.02
2019-05-13T04:54:43.540Z,5.09
2019-05-13T04:55:42.776Z,5.06
2019-05-13T04:56:42.207Z,5.13
2019-05-13T04:57:42.410Z,5.06
2019-05-13T04:58:42.765Z,5.09
2019-05-13T04:59:44.331Z,5.02
2019-05-13T05:00:42.651Z,5.04
2019-05-13T05:01:52.160Z,5.10
2019-05-13T05:02:49.069Z,5.13
2019-05-13T05:03:45.736Z,5.17
2019-05-13T05:04:43.565Z,5.21
2019-05-13T05:05:42.006Z,5.18
2019-05-13T05:06:42.433Z,5.31
2019-05-13T05:07:42.013Z,5.39
2019-05-13T05:08:42.155Z,5.46
2019-05-13T05:10:02.828Z,5.54
2019-05-13T05:10:42.916Z,5.58
2019-05-13T05:11:42.594Z,5.63
2019-05-13T05:12:42.562Z,5.72
2019-05-13T05:13:42.827Z,5.54
2019-05-13T05:14:41.852Z,5.58
2019-05-13T05:15:41.828Z,5.63
2019-05-13T05:16:44.687Z,5.76
2019-05-13T05:17:42.981Z,5.74
2019-05-13T05:18:42.226Z,5.81
2019-05-13T05:19:44.909Z,5.83
2019-05-13T05:20:41.723Z,5.91
2019-05-13T05:21:41.773Z,5.91
2019-05-13T05:22:42.033Z,6.04
2019-05-13T05:23:42.259Z,6.04
2019-05-13T05:24:41.531Z,6.08
2019-05-13T05:25:41.734Z,6.11
2019-05-13T05:26:42.050Z,6.11
2019-05-13T05:27:42.083Z,6.21
2019-05-13T05:28:41.654Z,6.14
2019-05-13T05:29:42.199Z,6.25
2019-05-13T05:30:42.020Z,6.33
2019-05-13T05:31:41.718Z,6.44
2019-05-13T05:32:42.170Z,6.52
2019-05-13T05:33:41.775Z,6.52
2019-05-13T05:34:42.008Z,6.59
2019-05-13T05:35:42.716Z,6.66
2019-05-13T05:36:41.853Z,6.71
2019-05-13T05:37:41.877Z,6.76
2019-05-13T05:38:43.276Z,6.81
2019-05-13T05:39:42.092Z,6.95
2019-05-13T05:40:42.632Z,6.95
2019-05-13T05:41:42.274Z,6.92
2019-05-13T05:42:42.013Z,6.99
2019-05-13T05:43:45.214Z,7.03
2019-05-13T05:44:42.256Z,7.20
2019-05-13T05:45:42.094Z,7.23
2019-05-13T05:46:42.885Z,7.20
2019-05-13T05:47:42.148Z,7.15
2019-05-13T05:48:42.177Z,7.34
2019-05-13T05:49:42.202Z,7.34
2019-05-13T05:50:42.485Z,7.43
2019-05-13T05:51:42.257Z,7.48
2019-05-13T05:52:42.293Z,7.50
2019-05-13T05:53:42.392Z,7.60
2019-05-13T05:54:42.389Z,7.75
2019-05-13T05:55:42.367Z,7.67
2019-05-13T05:56:42.396Z,7.74
2019-05-13T05:57:42.431Z,7.64
2019-05-13T05:58:42.450Z,7.77
2019-05-13T05:59:42.845Z,7.80
2019-05-13T06:00:42.508Z,7.98
2019-05-13T06:01:42.536Z,7.97
2019-05-13T06:02:42.791Z,7.97
2019-05-13T06:03:42.589Z,7.97
2019-05-13T06:04:43.239Z,8.04
2019-05-13T06:05:42.644Z,8.10
2019-05-13T06:06:42.670Z,8.28
2019-05-13T06:07:42.700Z,8.33
2019-05-13T06:08:42.727Z,8.43
2019-05-13T06:09:42.754Z,8.56
2019-05-13T06:10:49.893Z,8.71
2019-05-13T06:11:42.814Z,8.66
2019-05-13T06:12:42.840Z,8.71
2019-05-13T06:13:42.867Z,8.81
2019-05-13T06:14:42.896Z,8.83
2019-05-13T06:15:42.928Z,9.04
2019-05-13T06:16:42.958Z,9.01
2019-05-13T06:17:42.978Z,9.18
2019-05-13T06:18:43.009Z,9.17
2019-05-13T06:19:43.035Z,9.38
2019-05-13T06:20:43.063Z,9.56
2019-05-13T06:21:43.093Z,9.64
2019-05-13T06:22:43.119Z,9.84
2019-05-13T06:23:43.152Z,9.84
2019-05-13T06:24:43.176Z,9.97
2019-05-13T06:25:43.204Z,10.07
2019-05-13T06:26:43.234Z,10.20
2019-05-13T06:27:43.261Z,10.08
2019-05-13T06:28:43.301Z,10.23
2019-05-13T06:33:01.767Z,10.51
2019-05-13T06:34:02.184Z,10.52
2019-05-13T06:35:02.570Z,10.68
2019-05-13T06:36:01.843Z,10.88
2019-05-13T06:37:02.184Z,10.89
2019-05-13T06:38:01.901Z,10.86
2019-05-13T06:39:02.421Z,10.88
2019-05-13T06:40:02.276Z,10.91
2019-05-13T06:41:06.745Z,10.94
2019-05-13T06:42:03.023Z,10.99
2019-05-13T06:43:02.045Z,10.89
2019-05-13T06:44:02.704Z,11.11
2019-05-13T06:45:02.401Z,11.27
2019-05-13T06:46:02.136Z,11.27
2019-05-13T06:47:02.865Z,11.37
2019-05-13T06:48:02.531Z,11.61
2019-05-13T06:49:02.862Z,11.73
2019-05-13T06:50:03.307Z,11.67
2019-05-13T06:51:02.639Z,11.75
2019-05-13T06:52:02.333Z,11.78
2019-05-13T06:53:02.467Z,11.80
2019-05-13T06:54:02.535Z,12.12
2019-05-13T06:55:02.897Z,12.31
2019-05-13T06:56:02.425Z,12.27
2019-05-13T06:57:05.088Z,12.27
2019-05-13T06:58:02.489Z,12.24
2019-05-13T06:59:02.515Z,12.17
2019-05-13T07:00:02.543Z,12.34
2019-05-13T07:01:04.031Z,12.35
2019-05-13T07:02:02.610Z,12.49
2019-05-13T07:03:02.642Z,12.70
2019-05-13T07:04:02.664Z,12.60
2019-05-13T07:05:02.693Z,12.74
2019-05-13T07:06:02.728Z,12.83
2019-05-13T07:07:12.211Z,12.85
2019-05-13T07:08:02.785Z,12.83
2019-05-13T07:09:02.814Z,12.93
2019-05-13T07:10:02.863Z,12.95
2019-05-13T07:11:16.844Z,13.15
2019-05-13T07:12:03.620Z,13.08
2019-05-13T07:13:02.936Z,13.00
2019-05-13T07:14:02.977Z,13.15
2019-05-13T07:15:02.997Z,12.96
2019-05-13T07:16:03.024Z,12.95
2019-05-13T07:17:03.063Z,13.01
2019-05-13T07:18:03.088Z,13.01
2019-05-13T07:19:03.117Z,13.08
2019-05-13T07:20:03.146Z,13.04
2019-05-13T07:21:03.179Z,12.96
2019-05-13T07:22:03.366Z,13.01
2019-05-13T07:23:03.240Z,12.90
2019-05-13T07:24:03.268Z,13.07
2019-05-13T07:25:03.299Z,13.11
2019-05-13T07:26:03.329Z,13.12
2019-05-13T07:27:03.359Z,13.12
2019-05-13T07:28:03.390Z,13.15
2019-05-13T07:29:04.261Z,13.12
2019-05-13T07:30:03.451Z,13.15
2019-05-13T07:31:03.482Z,13.32
2019-05-13T07:32:03.510Z,13.29
2019-05-13T07:33:03.541Z,13.30
2019-05-13T07:34:03.573Z,13.23
2019-05-13T07:35:04.332Z,13.17
2019-05-13T07:36:03.934Z,13.15
2019-05-13T07:38:03.694Z,13.12
2019-05-13T07:39:03.725Z,13.08
2019-05-13T07:40:03.754Z,12.97
2019-05-13T07:41:03.791Z,13.07
2019-05-13T07:42:05.814Z,13.14
2019-05-13T07:43:03.848Z,13.12
2019-05-13T07:44:03.876Z,13.00
2019-05-13T07:45:03.907Z,12.95
2019-05-13T07:46:03.938Z,13.05
2019-05-13T07:47:04.013Z,13.08
2019-05-13T07:48:19.186Z,13.11
2019-05-13T07:49:04.031Z,13.22
2019-05-13T07:50:04.060Z,13.36
2019-05-13T07:51:04.870Z,13.12
2019-05-13T07:52:04.119Z,13.08
2019-05-13T07:53:04.152Z,13.15
2019-05-13T07:54:04.181Z,13.25
2019-05-13T07:55:04.214Z,13.41
2019-05-13T07:56:04.252Z,13.41
2019-05-13T07:57:04.278Z,13.20
2019-05-13T07:58:04.302Z,13.30
2019-05-13T07:59:04.332Z,13.44
2019-05-13T08:00:04.362Z,13.62
2019-05-13T08:01:04.414Z,13.60
2019-05-13T08:02:04.478Z,13.57
2019-05-13T08:03:04.465Z,13.39
2019-05-13T08:04:04.485Z,13.29
2019-05-13T08:05:04.516Z,13.38
2019-05-13T08:06:04.546Z,13.49
2019-05-13T08:07:04.578Z,13.88
2019-05-13T08:08:04.607Z,13.89
2019-05-13T08:09:04.638Z,13.96
2019-05-13T08:10:04.669Z,13.95
2019-05-13T08:11:04.699Z,13.79
2019-05-13T08:12:10.458Z,13.82
2019-05-13T08:13:04.760Z,13.64
2019-05-13T08:14:04.791Z,13.75
2019-05-13T08:15:04.823Z,13.73
2019-05-13T08:16:04.903Z,13.67
2019-05-13T08:17:04.885Z,14.09
2019-05-13T08:18:04.916Z,14.17
2019-05-13T08:19:04.945Z,14.27
2019-05-13T08:20:04.976Z,14.14
2019-05-13T08:21:05.008Z,14.24
2019-05-13T08:22:05.040Z,14.27
2019-05-13T08:24:05.105Z,14.47
2019-05-13T08:28:05.248Z,14.42
2019-05-13T08:29:06.072Z,14.54
2019-05-13T08:33:05.620Z,15.34
2019-05-13T08:45:42.250Z,14.96
2019-05-13T08:46:41.656Z,14.92
2019-05-13T08:47:42.057Z,15.21
2019-05-13T08:48:42.901Z,15.41
2019-05-13T08:49:41.666Z,15.80
2019-05-13T08:50:42.021Z,15.94
2019-05-13T08:51:42.281Z,16.34
2019-05-13T08:52:42.364Z,16.42
2019-05-13T08:53:42.469Z,16.43
2019-05-13T08:54:42.070Z,16.57
2019-05-13T08:55:42.617Z,16.39
2019-05-13T08:56:41.911Z,16.01
2019-05-13T08:57:42.073Z,15.86
2019-05-13T08:58:41.847Z,15.68
2019-05-13T09:00:41.916Z,16.08
2019-05-13T09:01:42.863Z,16.15
2019-05-13T09:02:42.194Z,16.41
2019-05-13T09:03:42.009Z,16.34
2019-05-13T09:04:42.457Z,16.48
2019-05-13T09:05:42.077Z,16.31
2019-05-13T09:06:42.131Z,16.21
2019-05-13T09:07:42.141Z,16.24
2019-05-13T09:08:42.588Z,15.97
2019-05-13T09:10:42.242Z,15.93
2019-05-13T09:11:42.398Z,16.30
2019-05-13T09:12:43.367Z,16.39
2019-05-13T09:13:42.492Z,16.79
2019-05-13T09:14:42.377Z,17.11
2019-05-13T09:15:42.413Z,16.88
2019-05-13T09:16:42.445Z,16.93
2019-05-13T09:17:42.625Z,16.98
2019-05-13T09:18:42.749Z,16.66
2019-05-13T09:19:42.547Z,16.56
2019-05-13T09:20:42.582Z,16.39
2019-05-13T09:22:42.671Z,16.41
2019-05-13T09:23:42.684Z,16.61
2019-05-13T09:24:42.862Z,16.81
2019-05-13T09:25:42.751Z,17.03
2019-05-13T09:26:42.788Z,17.12
2019-05-13T09:27:42.820Z,16.86
2019-05-13T09:28:42.853Z,16.66
2019-05-13T09:29:43.004Z,16.56
2019-05-13T09:30:42.924Z,16.35
2019-05-13T09:31:42.956Z,16.45
2019-05-13T09:32:42.992Z,16.30
2019-05-13T09:33:43.032Z,16.28
2019-05-13T09:34:43.060Z,16.15
2019-05-13T09:35:43.094Z,16.35
2019-05-13T09:36:43.128Z,16.64
2019-05-13T09:37:43.163Z,16.70
2019-05-13T09:38:43.198Z,16.75
2019-05-13T09:39:43.232Z,16.89
2019-05-13T09:40:43.265Z,16.79
2019-05-13T09:41:44.599Z,16.91
2019-05-13T09:42:49.118Z,16.66
2019-05-13T09:43:43.394Z,16.70
2019-05-13T09:44:43.429Z,16.53
2019-05-13T09:45:43.436Z,16.42
2019-05-13T09:46:43.471Z,16.14
2019-05-13T09:47:43.506Z,16.14
2019-05-13T09:48:43.539Z,16.08
2019-05-13T09:49:43.578Z,16.28
2019-05-13T09:50:43.607Z,16.28
2019-05-13T09:51:43.642Z,16.01
2019-05-13T09:52:43.706Z,16.08
2019-05-13T09:53:43.710Z,16.11
2019-05-13T09:54:43.766Z,16.17
2019-05-13T09:55:43.800Z,16.42
2019-05-13T09:57:43.846Z,16.71
2019-05-13T09:58:44.084Z,16.79
2019-05-13T09:59:43.939Z,16.94
2019-05-13T10:00:43.949Z,16.88
2019-05-13T10:01:44.187Z,17.07
2019-05-13T10:04:02.946Z,17.84
2019-05-13T10:05:02.419Z,18.17
2019-05-13T10:06:02.628Z,18.21
2019-05-13T10:07:02.598Z,18.36
2019-05-13T10:08:02.563Z,18.07
2019-05-13T10:09:02.436Z,18.35
2019-05-13T10:10:02.037Z,18.91
2019-05-13T10:11:01.921Z,19.76
2019-05-13T10:12:03.120Z,20.39
2019-05-13T10:13:11.384Z,20.79
2019-05-13T10:14:02.409Z,21.56
2019-05-13T10:15:02.480Z,20.99
2019-05-13T10:16:02.074Z,20.58
2019-05-13T10:17:06.138Z,19.81
2019-05-13T10:18:02.147Z,19.91
2019-05-13T10:19:02.775Z,19.73
2019-05-13T10:20:02.220Z,19.54
2019-05-13T10:21:02.260Z,19.71
2019-05-13T10:22:02.300Z,19.94
2019-05-13T10:23:02.356Z,19.32
2019-05-13T10:24:02.373Z,21.14
2019-05-13T10:25:02.798Z,20.88
2019-05-13T10:26:03.510Z,20.33
2019-05-13T10:27:02.751Z,19.98
2019-05-13T10:28:02.528Z,19.80
2019-05-13T10:29:02.560Z,19.76
2019-05-13T10:30:02.603Z,18.78
2019-05-13T10:31:02.802Z,18.11
2019-05-13T10:32:03.606Z,18.10
2019-05-13T10:33:03.019Z,17.95
2019-05-13T10:34:02.768Z,18.21
2019-05-13T10:35:03.580Z,18.55
2019-05-13T10:36:03.855Z,19.33
2019-05-13T10:37:02.873Z,19.46
2019-05-13T10:38:04.466Z,19.86
2019-05-13T10:39:02.935Z,20.62
2019-05-13T10:40:02.972Z,20.38
2019-05-13T10:41:03.729Z,19.99
2019-05-13T10:42:03.873Z,19.73
2019-05-13T10:43:03.088Z,19.51
2019-05-13T10:44:03.319Z,19.37
2019-05-13T10:45:03.165Z,19.33
2019-05-13T10:46:03.220Z,19.25
2019-05-13T10:47:03.235Z,19.43
2019-05-13T10:48:03.274Z,19.50
2019-05-13T10:49:03.310Z,19.59
2019-05-13T10:50:03.346Z,19.73
2019-05-13T10:51:03.383Z,19.81
2019-05-13T10:52:03.504Z,19.99
2019-05-13T10:53:03.457Z,20.10
2019-05-13T10:54:03.496Z,20.20
2019-05-13T10:55:03.550Z,20.28
2019-05-13T10:56:03.724Z,21.44
2019-05-13T10:57:04.251Z,21.35
2019-05-13T10:58:03.643Z,21.22
2019-05-13T10:59:03.679Z,22.06
2019-05-13T11:00:03.715Z,23.87
2019-05-13T11:01:03.755Z,25.40
2019-05-13T11:02:03.793Z,25.83
2019-05-13T11:03:46.383Z,27.34
2019-05-13T11:04:46.423Z,25.67
2019-05-13T11:05:46.465Z,24.91
2019-05-13T11:06:46.504Z,23.72
2019-05-13T11:07:46.546Z,23.12
2019-05-13T11:08:46.585Z,24.87
2019-05-13T11:09:46.626Z,25.77
2019-05-13T11:10:46.668Z,26.09
2019-05-13T11:11:46.710Z,24.88
2019-05-13T11:15:46.875Z,22.92
2019-05-13T11:16:46.918Z,22.73
2019-05-13T11:17:46.959Z,22.68
2019-05-13T11:18:47.001Z,22.60
2019-05-13T11:19:47.041Z,23.31
2019-05-13T11:20:47.081Z,22.95
2019-05-13T11:21:50.666Z,22.18
2019-05-13T11:22:47.162Z,21.92
2019-05-13T11:23:47.203Z,22.20
2019-05-13T11:24:47.245Z,21.67
2019-05-13T11:25:47.284Z,21.56
2019-05-13T11:26:47.323Z,21.10
2019-05-13T11:27:47.366Z,21.06
2019-05-13T11:28:47.405Z,21.34
2019-05-13T11:29:47.467Z,21.98
2019-05-13T11:30:47.484Z,21.68
2019-05-13T11:31:47.522Z,21.64
2019-05-13T11:32:47.565Z,21.32
2019-05-13T11:33:47.604Z,21.25
2019-05-13T11:34:47.641Z,21.24
2019-05-13T11:35:47.682Z,21.12
2019-05-13T11:36:47.720Z,21.27
2019-05-13T11:37:47.760Z,21.56
2019-05-13T11:38:47.798Z,22.86
2019-05-13T11:39:47.837Z,23.32
2019-05-13T11:40:47.877Z,24.69
2019-05-13T11:41:47.917Z,25.00
2019-05-13T11:42:47.954Z,23.68
2019-05-13T11:44:08.026Z,23.33
2019-05-13T11:44:48.367Z,25.62
2019-05-13T11:45:48.085Z,27.07
2019-05-13T11:46:48.119Z,26.62
2019-05-13T11:47:48.155Z,27.13
2019-05-13T11:48:48.196Z,27.90
2019-05-13T11:49:48.239Z,28.00
2019-05-13T11:50:50.478Z,28.39
2019-05-13T11:51:48.322Z,29.57
2019-05-13T11:52:48.365Z,29.24
2019-05-13T11:53:48.408Z,27.18
2019-05-13T11:54:48.450Z,26.05
2019-05-13T11:55:48.493Z,25.17
2019-05-13T11:56:52.240Z,24.16
2019-05-13T11:57:48.581Z,23.91
2019-05-13T11:58:48.633Z,26.01
2019-05-13T11:59:48.665Z,26.62
2019-05-13T12:00:52.752Z,24.99
2019-05-13T12:01:48.751Z,24.71
2019-05-13T12:02:53.824Z,24.93
2019-05-13T12:03:48.836Z,24.28
2019-05-13T12:04:48.879Z,25.52
2019-05-13T12:05:48.923Z,24.98
2019-05-13T12:06:54.016Z,24.21
2019-05-13T12:07:49.006Z,23.68
2019-05-13T12:08:53.270Z,22.97
2019-05-13T12:09:49.091Z,22.30
2019-05-13T12:10:51.147Z,22.10
2019-05-13T12:11:49.175Z,22.88
2019-05-13T12:12:49.216Z,24.84
2019-05-13T12:13:52.517Z,26.13
2019-05-13T12:15:50.035Z,28.22
2019-05-13T12:16:49.390Z,28.22
2019-05-13T12:17:52.351Z,29.33
2019-05-13T12:18:52.515Z,30.31
2019-05-13T12:19:49.511Z,30.34
2019-05-13T12:20:53.588Z,30.65
2019-05-13T12:21:53.659Z,30.83
2019-05-13T12:22:52.270Z,31.20
2019-05-13T12:23:52.662Z,31.35
2019-05-13T12:24:51.567Z,30.84
2019-05-13T12:25:52.564Z,30.82
2019-05-13T12:27:51.923Z,31.29
2019-05-13T12:28:53.714Z,31.58
2019-05-13T12:29:52.846Z,32.10
2019-05-13T12:30:52.806Z,32.69
2019-05-13T12:31:53.693Z,32.78
2019-05-13T12:32:51.856Z,31.89
2019-05-13T12:33:52.289Z,30.11
2019-05-13T12:34:52.670Z,30.97
2019-05-13T12:35:53.180Z,31.93
2019-05-13T12:36:50.350Z,31.21
2019-05-13T12:37:53.360Z,28.62
2019-05-13T12:38:53.510Z,27.63
2019-05-13T12:39:53.003Z,28.61
2019-05-13T12:40:52.911Z,29.61
2019-05-13T12:41:53.891Z,30.10
2019-05-13T12:42:53.863Z,30.65
2019-05-13T12:43:54.028Z,30.60
2019-05-13T12:45:01.923Z,28.44
2019-05-13T12:45:53.247Z,29.31
2019-05-13T12:46:54.067Z,30.16
2019-05-13T12:47:53.081Z,30.34
2019-05-13T12:48:50.865Z,31.17
2019-05-13T12:49:50.938Z,30.29
2019-05-13T12:50:54.105Z,29.61
2019-05-13T12:51:51.785Z,30.58
2019-05-13T12:52:51.581Z,31.44
2019-05-13T12:53:52.799Z,30.57
2019-05-13T12:54:52.863Z,28.55
2019-05-13T12:55:55.651Z,28.93
2019-05-13T12:56:52.427Z,29.00
2019-05-13T12:57:52.657Z,29.09
2019-05-13T12:58:52.233Z,29.89
2019-05-13T12:59:51.388Z,29.41
2019-05-13T13:00:53.295Z,29.79
2019-05-13T13:01:52.630Z,30.23
2019-05-13T13:02:52.055Z,30.49
2019-05-13T13:03:51.580Z,31.12
2019-05-13T13:05:08.738Z,32.07
2019-05-13T13:05:51.679Z,30.83
2019-05-13T13:06:53.196Z,31.19
2019-05-13T13:08:16.641Z,30.86
2019-05-13T13:08:51.842Z,29.68
2019-05-13T13:09:53.486Z,28.54
2019-05-13T13:10:53.202Z,28.44
2019-05-13T13:12:54.610Z,29.70
2019-05-13T13:13:58.819Z,29.97
2019-05-13T13:14:54.573Z,30.54
2019-05-13T13:16:53.977Z,30.29
2019-05-13T13:17:53.954Z,31.47
2019-05-13T13:18:52.694Z,32.25
2019-05-13T13:19:54.771Z,33.31
2019-05-13T13:21:00.263Z,32.70
2019-05-13T13:21:53.412Z,32.94
2019-05-13T13:22:52.491Z,31.96
2019-05-13T13:23:52.539Z,29.52
2019-05-13T13:24:57.095Z,27.50
2019-05-13T13:25:56.840Z,26.33
2019-05-13T13:26:53.706Z,25.47
2019-05-13T13:28:10.780Z,24.64
2019-05-13T13:28:55.665Z,24.12
2019-05-13T13:30:02.714Z,23.69
2019-05-13T13:30:53.304Z,24.25
2019-05-13T13:31:55.509Z,24.18
2019-05-13T13:32:54.794Z,24.02
2019-05-13T13:33:55.163Z,25.35
2019-05-13T13:34:54.624Z,26.43
2019-05-13T13:35:58.795Z,27.88
2019-05-13T13:36:53.341Z,29.31
2019-05-13T13:37:53.273Z,29.67
2019-05-13T13:39:55.108Z,31.88
2019-05-13T13:40:54.054Z,32.63
2019-05-13T13:41:53.771Z,32.78
2019-05-13T13:42:53.406Z,32.25
2019-05-13T13:43:54.038Z,30.23
2019-05-13T13:44:54.128Z,28.31
2019-05-13T13:46:07.516Z,27.43
2019-05-13T13:46:54.795Z,27.21
2019-05-13T13:48:03.159Z,28.46
2019-05-13T13:48:55.485Z,28.76
2019-05-13T13:49:53.725Z,27.31
2019-05-13T13:50:55.751Z,26.65
2019-05-13T13:51:53.813Z,26.26
2019-05-13T13:52:53.907Z,28.46
2019-05-13T13:53:56.523Z,30.20
2019-05-13T13:55:02.864Z,31.31
2019-05-13T13:55:55.957Z,30.70
2019-05-13T13:56:56.058Z,30.72
2019-05-13T13:57:56.756Z,31.02
2019-05-13T13:58:54.222Z,29.86
2019-05-13T14:00:20.804Z,28.52
2019-05-13T14:01:05.927Z,29.28
2019-05-13T14:01:55.260Z,30.23
2019-05-13T14:02:54.588Z,27.88
2019-05-13T14:03:54.371Z,25.99
2019-05-13T14:04:54.598Z,24.96
2019-05-13T14:05:54.546Z,25.90
2019-05-13T14:06:25.035Z,15.65
2019-05-13T14:06:32.042Z,27.37
2019-05-13T14:07:54.528Z,26.66
2019-05-13T14:08:54.573Z,27.97
2019-05-13T14:09:54.618Z,29.09
2019-05-13T14:10:54.662Z,29.74
2019-05-13T14:11:54.705Z,30.34
2019-05-13T14:12:54.750Z,30.16
2019-05-13T14:13:54.795Z,30.43
2019-05-13T14:14:54.838Z,31.19
2019-05-13T14:15:54.884Z,30.99
2019-05-13T14:16:54.931Z,31.14
2019-05-13T14:17:54.975Z,31.61
2019-05-13T14:18:55.025Z,31.10
2019-05-13T14:19:55.067Z,28.34
2019-05-13T14:20:55.114Z,27.81
2019-05-13T14:21:55.156Z,27.39
2019-05-13T14:22:58.069Z,28.80
2019-05-13T14:23:55.247Z,30.17
2019-05-13T14:24:55.292Z,30.47
2019-05-13T14:25:55.338Z,30.69
2019-05-13T14:26:55.383Z,30.84
2019-05-13T14:27:55.428Z,30.34
2019-05-13T14:28:55.477Z,30.43
2019-05-13T14:29:55.520Z,30.13
2019-05-13T14:30:55.566Z,30.01
2019-05-13T14:31:55.611Z,31.10
2019-05-13T14:32:55.658Z,31.75
2019-05-13T14:33:55.705Z,32.38
2019-05-13T14:34:55.750Z,32.77
2019-05-13T14:35:55.806Z,33.11
2019-05-13T14:36:55.844Z,33.21
2019-05-13T14:37:55.894Z,33.11
2019-05-13T14:38:55.954Z,31.95
2019-05-13T14:39:55.985Z,32.77
2019-05-13T14:40:56.032Z,32.82
2019-05-13T14:41:56.078Z,32.04
2019-05-13T14:42:56.127Z,32.25
2019-05-13T14:43:56.173Z,32.21
2019-05-13T14:44:56.220Z,31.56
2019-05-13T14:45:56.271Z,32.13
2019-05-13T14:46:56.315Z,32.56
2019-05-13T14:47:56.367Z,32.11
2019-05-13T14:48:56.411Z,32.08
2019-05-13T14:49:56.790Z,32.13
2019-05-13T14:50:58.999Z,32.14
2019-05-13T14:51:56.642Z,31.81
2019-05-13T14:52:56.606Z,30.69
2019-05-13T14:53:56.651Z,31.19
2019-05-13T14:54:56.697Z,31.78
2019-05-13T14:55:56.747Z,31.26
2019-05-13T14:56:56.792Z,31.06
2019-05-13T14:57:56.841Z,31.88
2019-05-13T14:58:56.887Z,30.39
2019-05-13T14:59:56.934Z,29.61
2019-05-13T15:01:11.248Z,29.12
2019-05-13T15:01:57.029Z,29.21
2019-05-13T15:02:57.077Z,28.93
2019-05-13T15:03:57.125Z,29.49
2019-05-13T15:04:57.172Z,28.02
2019-05-13T15:05:57.218Z,28.80
2019-05-13T15:06:57.265Z,27.75
2019-05-13T15:07:57.312Z,27.60
2019-05-13T15:08:57.360Z,27.12
2019-05-13T15:09:57.407Z,28.76
2019-05-13T15:10:57.451Z,28.92
2019-05-13T15:11:57.499Z,26.88
2019-05-13T15:12:57.545Z,28.17
2019-05-13T15:13:57.591Z,29.27
2019-05-13T15:14:57.636Z,30.49
2019-05-13T15:15:57.681Z,30.47
2019-05-13T15:17:03.112Z,30.91
2019-05-13T15:17:57.774Z,31.23
2019-05-13T15:18:57.819Z,31.29
2019-05-13T15:19:57.865Z,31.53
2019-05-13T15:20:57.910Z,31.88
2019-05-13T15:21:58.006Z,30.72
2019-05-13T15:22:58.002Z,31.04
2019-05-13T15:23:58.047Z,30.60
2019-05-13T15:24:58.094Z,30.98
2019-05-13T15:25:58.141Z,31.92
2019-05-13T15:26:58.185Z,31.80
2019-05-13T15:27:58.233Z,30.82
2019-05-13T15:29:01.680Z,30.11
2019-05-13T15:30:25.436Z,30.38
2019-05-13T15:30:58.370Z,28.29
2019-05-13T15:31:58.416Z,27.57
2019-05-13T15:32:58.462Z,25.62
2019-05-13T15:33:58.510Z,24.32
2019-05-13T15:34:58.553Z,24.45
2019-05-13T15:35:58.598Z,24.24
2019-05-13T15:36:58.642Z,23.79
2019-05-13T15:37:58.687Z,25.15
2019-05-13T15:39:01.222Z,25.60
2019-05-13T15:39:58.781Z,25.57
2019-05-13T15:40:58.818Z,27.21
2019-05-13T15:42:01.726Z,28.61
2019-05-13T15:42:59.439Z,28.88
2019-05-13T15:43:58.946Z,29.57
2019-05-13T15:45:01.600Z,28.89
2019-05-13T15:47:59.346Z,30.13
2019-05-13T15:49:01.701Z,29.68
2019-05-13T15:50:02.178Z,29.30
2019-05-13T15:51:01.524Z,28.48
2019-05-13T15:52:01.753Z,29.14
2019-05-13T15:54:02.417Z,29.26
2019-05-13T15:55:01.425Z,29.58
2019-05-13T15:55:59.495Z,29.42
2019-05-13T15:59:01.949Z,30.32
2019-05-13T16:00:01.901Z,30.77
2019-05-13T16:04:02.467Z,32.08
2019-05-13T16:05:02.323Z,31.63